sensor_id;sensor_type;location;lat;lon;timestamp;pressure;altitude;pressure_sealevel;temperature;humidity
31337;BME280;22846;42.654;23.314;2023-03-03T00:01:11;94497.31;;;24.03;48.63
31337;BME280;22846;42.654;23.314;2023-03-03T00:03:37;94494.25;;;24.01;48.81
31337;BME280;22846;42.654;23.314;2023-03-03T00:06:04;94488.91;;;23.98;48.46
31337;BME280;22846;42.654;23.314;2023-03-03T00:08:32;94486.28;;;23.94;48.36
31337;BME280;22846;42.654;23.314;2023-03-03T00:10:58;94475.50;;;23.91;48.32
31337;BME280;22846;42.654;23.314;2023-03-03T00:13:26;94485.44;;;23.97;48.31
31337;BME280;22846;42.654;23.314;2023-03-03T00:15:53;94487.38;;;23.97;48.54
31337;BME280;22846;42.654;23.314;2023-03-03T00:18:33;94473.19;;;23.90;48.60
31337;BME280;22846;42.654;23.314;2023-03-03T00:21:01;94479.75;;;23.92;48.71
31337;BME280;22846;42.654;23.314;2023-03-03T00:23:34;94484.44;;;23.92;48.76
31337;BME280;22846;42.654;23.314;2023-03-03T00:26:02;94470.56;;;23.86;48.48
31337;BME280;22846;42.654;23.314;2023-03-03T00:28:38;94479.88;;;23.89;48.95
31337;BME280;22846;42.654;23.314;2023-03-03T00:31:15;94464.47;;;23.82;48.61
31337;BME280;22846;42.654;23.314;2023-03-03T00:33:52;94486.81;;;23.90;48.88
31337;BME280;22846;42.654;23.314;2023-03-03T00:38:53;94472.53;;;23.86;48.72
31337;BME280;22846;42.654;23.314;2023-03-03T00:41:25;94467.53;;;23.84;48.57
31337;BME280;22846;42.654;23.314;2023-03-03T00:43:51;94471.34;;;23.87;48.92
31337;BME280;22846;42.654;23.314;2023-03-03T00:46:18;94445.66;;;23.72;48.93
31337;BME280;22846;42.654;23.314;2023-03-03T00:48:45;94442.06;;;23.75;49.06
31337;BME280;22846;42.654;23.314;2023-03-03T00:51:32;94458.91;;;23.86;48.75
31337;BME280;22846;42.654;23.314;2023-03-03T00:53:57;94451.25;;;23.81;48.88
31337;BME280;22846;42.654;23.314;2023-03-03T00:56:23;94443.94;;;23.78;48.93
31337;BME280;22846;42.654;23.314;2023-03-03T00:58:49;94457.03;;;23.83;49.09
31337;BME280;22846;42.654;23.314;2023-03-03T01:01:16;94428.84;;;23.73;49.06
31337;BME280;22846;42.654;23.314;2023-03-03T01:03:42;94428.84;;;23.73;48.99
31337;BME280;22846;42.654;23.314;2023-03-03T01:06:09;94437.63;;;23.81;49.14
31337;BME280;22846;42.654;23.314;2023-03-03T01:08:36;94428.97;;;23.70;49.15
31337;BME280;22846;42.654;23.314;2023-03-03T01:11:09;94430.50;;;23.71;48.71
31337;BME280;22846;42.654;23.314;2023-03-03T01:13:39;94436.97;;;23.77;48.58
31337;BME280;22846;42.654;23.314;2023-03-03T01:16:06;94436.97;;;23.77;49.17
31337;BME280;22846;42.654;23.314;2023-03-03T01:18:31;94426.88;;;23.74;48.74
31337;BME280;22846;42.654;23.314;2023-03-03T01:20:58;94421.66;;;23.67;49.02
31337;BME280;22846;42.654;23.314;2023-03-03T01:23:23;94436.63;;;23.75;49.03
31337;BME280;22846;42.654;23.314;2023-03-03T01:25:49;94421.66;;;23.67;49.09
31337;BME280;22846;42.654;23.314;2023-03-03T01:28:14;94434.75;;;23.72;49.15
31337;BME280;22846;42.654;23.314;2023-03-03T01:30:39;94428.63;;;23.68;48.87
31337;BME280;22846;42.654;23.314;2023-03-03T01:33:05;94428.19;;;23.69;49.13
31337;BME280;22846;42.654;23.314;2023-03-03T01:35:30;94424.38;;;23.67;49.03
31337;BME280;22846;42.654;23.314;2023-03-03T01:37:56;94427.78;;;23.71;49.16
31337;BME280;22846;42.654;23.314;2023-03-03T01:40:25;94415.84;;;23.65;48.92
31337;BME280;22846;42.654;23.314;2023-03-03T01:42:51;94408.78;;;23.55;49.27
31337;BME280;22846;42.654;23.314;2023-03-03T01:45:24;94428.63;;;23.68;49.25
31337;BME280;22846;42.654;23.314;2023-03-03T01:47:57;94403.63;;;23.57;49.05
31337;BME280;22846;42.654;23.314;2023-03-03T01:50:51;94424.38;;;23.67;49.27
31337;BME280;22846;42.654;23.314;2023-03-03T01:53:33;94427.53;;;23.65;49.17
31337;BME280;22846;42.654;23.314;2023-03-03T01:56:02;94428.31;;;23.66;49.08
31337;BME280;22846;42.654;23.314;2023-03-03T01:58:34;94429.19;;;23.63;49.26
31337;BME280;22846;42.654;23.314;2023-03-03T02:01:07;94418.81;;;23.58;49.25
31337;BME280;22846;42.654;23.314;2023-03-03T02:03:33;94430.06;;;23.60;49.05
31337;BME280;22846;42.654;23.314;2023-03-03T02:06:08;94416.88;;;23.58;49.13
31337;BME280;22846;42.654;23.314;2023-03-03T02:08:41;94426.13;;;23.61;49.05
31337;BME280;22846;42.654;23.314;2023-03-03T02:11:10;94415.63;;;23.59;49.36
31337;BME280;22846;42.654;23.314;2023-03-03T02:13:36;94416.09;;;23.58;49.04
31337;BME280;22846;42.654;23.314;2023-03-03T02:16:02;94422.63;;;23.60;48.96
31337;BME280;22846;42.654;23.314;2023-03-03T02:18:27;94419.47;;;23.62;49.34
31337;BME280;22846;42.654;23.314;2023-03-03T02:21:04;94418.47;;;23.56;49.06
31337;BME280;22846;42.654;23.314;2023-03-03T02:23:39;94419.91;;;23.60;49.11
31337;BME280;22846;42.654;23.314;2023-03-03T02:26:08;94422.63;;;23.60;49.12
31337;BME280;22846;42.654;23.314;2023-03-03T02:28:36;94425.34;;;23.60;49.13
31337;BME280;22846;42.654;23.314;2023-03-03T02:31:05;94417.28;;;23.57;49.04
31337;BME280;22846;42.654;23.314;2023-03-03T02:33:31;94416.19;;;23.54;49.18
31337;BME280;22846;42.654;23.314;2023-03-03T02:35:56;94413.91;;;23.53;49.30
31337;BME280;22846;42.654;23.314;2023-03-03T02:46:39;94415.56;;;23.50;49.52
31337;BME280;22846;42.654;23.314;2023-03-03T02:49:07;94425.16;;;23.55;49.36
31337;BME280;22846;42.654;23.314;2023-03-03T02:51:33;94419.03;;;23.51;49.41
31337;BME280;22846;42.654;23.314;2023-03-03T02:54:00;94415.84;;;23.52;49.35
31337;BME280;22846;42.654;23.314;2023-03-03T02:56:26;94415.44;;;23.54;49.11
31337;BME280;22846;42.654;23.314;2023-03-03T02:58:52;94413.13;;;23.52;49.13
31337;BME280;22846;42.654;23.314;2023-03-03T03:01:17;94402.00;;;23.47;48.96
31337;BME280;22846;42.654;23.314;2023-03-03T03:03:44;94415.44;;;23.54;49.17
31337;BME280;22846;42.654;23.314;2023-03-03T03:06:10;94412.03;;;23.50;49.45
31337;BME280;22846;42.654;23.314;2023-03-03T03:08:36;94405.16;;;23.45;49.18
31337;BME280;22846;42.654;23.314;2023-03-03T03:11:02;94401.69;;;23.45;49.12
31337;BME280;22846;42.654;23.314;2023-03-03T03:13:27;94389.47;;;23.37;49.02
31337;BME280;22846;42.654;23.314;2023-03-03T03:15:54;94404.72;;;23.47;49.31
31337;BME280;22846;42.654;23.314;2023-03-03T03:18:20;94404.72;;;23.47;49.34
31337;BME280;22846;42.654;23.314;2023-03-03T03:20:45;94403.22;;;23.46;49.11
31337;BME280;22846;42.654;23.314;2023-03-03T03:23:11;94413.25;;;23.49;49.40
31337;BME280;22846;42.654;23.314;2023-03-03T03:25:37;94405.63;;;23.44;49.17
31337;BME280;22846;42.654;23.314;2023-03-03T03:28:10;94414.44;;;23.48;49.34
31337;BME280;22846;42.654;23.314;2023-03-03T03:30:36;94400.16;;;23.44;49.51
31337;BME280;22846;42.654;23.314;2023-03-03T03:33:02;94402.88;;;23.44;49.54
31337;BME280;22846;42.654;23.314;2023-03-03T03:35:28;94406.38;;;23.44;49.48
31337;BME280;22846;42.654;23.314;2023-03-03T03:37:53;94390.97;;;23.38;49.37
31337;BME280;22846;42.654;23.314;2023-03-03T03:40:19;94392.50;;;23.39;49.26
31337;BME280;22846;42.654;23.314;2023-03-03T03:42:44;94390.91;;;23.41;49.37
31337;BME280;22846;42.654;23.314;2023-03-03T03:45:10;94397.44;;;23.44;49.30
31337;BME280;22846;42.654;23.314;2023-03-03T03:47:40;94387.84;;;23.39;49.44
31337;BME280;22846;42.654;23.314;2023-03-03T03:50:07;94387.72;;;23.43;49.38
31337;BME280;22846;42.654;23.314;2023-03-03T03:52:33;94390.56;;;23.39;49.28
31337;BME280;22846;42.654;23.314;2023-03-03T03:54:58;94387.84;;;23.39;49.17
31337;BME280;22846;42.654;23.314;2023-03-03T03:57:24;94380.19;;;23.34;49.68
31337;BME280;22846;42.654;23.314;2023-03-03T03:59:49;94385.53;;;23.38;49.47
31337;BME280;22846;42.654;23.314;2023-03-03T04:02:16;94387.38;;;23.41;49.38
31337;BME280;22846;42.654;23.314;2023-03-03T04:04:41;94375.41;;;23.38;49.26
31337;BME280;22846;42.654;23.314;2023-03-03T04:07:07;94363.06;;;23.34;49.69
31337;BME280;22846;42.654;23.314;2023-03-03T04:09:33;94380.84;;;23.63;49.50
31337;BME280;22846;42.654;23.314;2023-03-03T04:11:59;94346.06;;;23.55;48.97
31337;BME280;22846;42.654;23.314;2023-03-03T04:14:24;94374.28;;;23.98;48.24
31337;BME280;22846;42.654;23.314;2023-03-03T04:16:50;94375.19;;;24.16;47.96
31337;BME280;22846;42.654;23.314;2023-03-03T04:19:15;94384.66;;;24.37;47.98
31337;BME280;22846;42.654;23.314;2023-03-03T04:21:40;94382.66;;;24.50;47.64
31337;BME280;22846;42.654;23.314;2023-03-03T04:24:06;94380.66;;;24.63;47.39
31337;BME280;22846;42.654;23.314;2023-03-03T04:26:32;94367.59;;;24.67;47.20
31337;BME280;22846;42.654;23.314;2023-03-03T04:28:57;94369.06;;;24.80;46.50
31337;BME280;22846;42.654;23.314;2023-03-03T04:31:24;94376.00;;;24.93;46.36
31337;BME280;22846;42.654;23.314;2023-03-03T04:33:50;94378.25;;;24.95;46.36
31337;BME280;22846;42.654;23.314;2023-03-03T04:36:16;94372.72;;;25.07;46.17
31337;BME280;22846;42.654;23.314;2023-03-03T04:38:42;94367.78;;;25.15;46.34
31337;BME280;22846;42.654;23.314;2023-03-03T04:41:07;94363.97;;;25.12;45.83
31337;BME280;22846;42.654;23.314;2023-03-03T04:43:33;94366.63;;;25.25;45.65
31337;BME280;22846;42.654;23.314;2023-03-03T04:45:58;94360.84;;;25.23;45.89
31337;BME280;22846;42.654;23.314;2023-03-03T04:48:24;94363.03;;;25.37;45.63
31337;BME280;22846;42.654;23.314;2023-03-03T04:50:49;94372.94;;;25.43;45.58
31337;BME280;22846;42.654;23.314;2023-03-03T04:53:14;94374.97;;;25.52;45.20
31337;BME280;22846;42.654;23.314;2023-03-03T04:55:40;94372.97;;;25.52;45.03
31337;BME280;22846;42.654;23.314;2023-03-03T04:58:05;94371.31;;;25.55;45.52
31337;BME280;22846;42.654;23.314;2023-03-03T05:00:31;94378.16;;;25.59;45.29
31337;BME280;22846;42.654;23.314;2023-03-03T05:02:57;94372.53;;;25.62;45.02
31337;BME280;22846;42.654;23.314;2023-03-03T05:05:23;94368.00;;;25.60;44.63
31337;BME280;22846;42.654;23.314;2023-03-03T05:07:49;94374.38;;;25.65;44.75
31337;BME280;22846;42.654;23.314;2023-03-03T05:10:14;94385.97;;;25.69;45.00
31337;BME280;22846;42.654;23.314;2023-03-03T05:12:39;94387.63;;;25.67;44.76
31337;BME280;22846;42.654;23.314;2023-03-03T05:15:05;94383.81;;;25.64;44.70
31337;BME280;22846;42.654;23.314;2023-03-03T05:17:31;94385.94;;;25.61;44.99
31337;BME280;22846;42.654;23.314;2023-03-03T05:19:56;94380.59;;;25.57;45.24
31337;BME280;22846;42.654;23.314;2023-03-03T05:22:22;94387.16;;;25.60;45.21
31337;BME280;22846;42.654;23.314;2023-03-03T05:24:48;94387.72;;;25.55;45.30
31337;BME280;22846;42.654;23.314;2023-03-03T05:27:14;94385.31;;;25.57;45.21
31337;BME280;22846;42.654;23.314;2023-03-03T05:29:40;94383.78;;;25.56;44.91
31337;BME280;22846;42.654;23.314;2023-03-03T05:32:06;94389.56;;;25.58;45.42
31337;BME280;22846;42.654;23.314;2023-03-03T05:34:31;94379.66;;;25.51;45.19
31337;BME280;22846;42.654;23.314;2023-03-03T05:36:57;94380.72;;;25.45;45.20
31337;BME280;22846;42.654;23.314;2023-03-03T05:39:22;94383.91;;;25.52;45.00
31337;BME280;22846;42.654;23.314;2023-03-03T05:41:47;94385.91;;;25.52;45.19
31337;BME280;22846;42.654;23.314;2023-03-03T05:44:13;94381.91;;;25.44;45.55
31337;BME280;22846;42.654;23.314;2023-03-03T05:46:38;94399.72;;;25.48;45.49
31337;BME280;22846;42.654;23.314;2023-03-03T05:49:04;94400.09;;;25.38;45.48
31337;BME280;22846;42.654;23.314;2023-03-03T05:51:29;94402.38;;;25.30;45.19
31337;BME280;22846;42.654;23.314;2023-03-03T05:53:55;94394.25;;;25.18;45.44
31337;BME280;22846;42.654;23.314;2023-03-03T05:56:20;94383.91;;;25.00;45.65
31337;BME280;22846;42.654;23.314;2023-03-03T05:58:46;94397.72;;;24.97;45.80
31337;BME280;22846;42.654;23.314;2023-03-03T06:01:11;94395.25;;;24.90;46.09
31337;BME280;22846;42.654;23.314;2023-03-03T06:03:37;94396.41;;;24.80;45.96
31337;BME280;22846;42.654;23.314;2023-03-03T06:06:02;94391.31;;;24.70;46.45
31337;BME280;22846;42.654;23.314;2023-03-03T06:08:28;94393.28;;;24.69;46.30
31337;BME280;22846;42.654;23.314;2023-03-03T06:10:54;94396.84;;;24.57;46.65
31337;BME280;22846;42.654;23.314;2023-03-03T06:13:20;94398.03;;;24.56;46.76
31337;BME280;22846;42.654;23.314;2023-03-03T06:15:45;94395.22;;;24.47;47.05
31337;BME280;22846;42.654;23.314;2023-03-03T06:18:11;94395.88;;;24.39;46.68
31337;BME280;22846;42.654;23.314;2023-03-03T06:20:36;94405.84;;;24.45;46.83
31337;BME280;22846;42.654;23.314;2023-03-03T06:23:03;94406.94;;;24.35;46.93
31337;BME280;22846;42.654;23.314;2023-03-03T06:25:28;94413.28;;;24.32;47.41
31337;BME280;22846;42.654;23.314;2023-03-03T06:27:54;94406.72;;;24.30;47.54
31337;BME280;22846;42.654;23.314;2023-03-03T06:30:19;94408.38;;;24.27;47.58
31337;BME280;22846;42.654;23.314;2023-03-03T06:32:45;94416.56;;;24.27;47.18
31337;BME280;22846;42.654;23.314;2023-03-03T06:35:11;94418.97;;;24.25;47.51
31337;BME280;22846;42.654;23.314;2023-03-03T06:37:36;94407.97;;;24.16;47.22
31337;BME280;22846;42.654;23.314;2023-03-03T06:40:03;94416.81;;;24.20;47.72
31337;BME280;22846;42.654;23.314;2023-03-03T06:42:29;94414.31;;;24.13;47.46
31337;BME280;22846;42.654;23.314;2023-03-03T06:44:55;94415.63;;;24.09;47.72
31337;BME280;22846;42.654;23.314;2023-03-03T06:47:20;94416.06;;;24.07;47.36
31337;BME280;22846;42.654;23.314;2023-03-03T06:49:46;94408.66;;;24.08;47.62
31337;BME280;22846;42.654;23.314;2023-03-03T06:52:24;94420.66;;;24.10;47.52
31337;BME280;22846;42.654;23.314;2023-03-03T06:54:53;94416.84;;;24.08;47.81
31337;BME280;22846;42.654;23.314;2023-03-03T06:57:29;94405.03;;;23.98;47.85
31337;BME280;22846;42.654;23.314;2023-03-03T06:59:59;94412.38;;;24.01;47.69
31337;BME280;22846;42.654;23.314;2023-03-03T07:02:26;94424.38;;;24.04;47.81
31337;BME280;22846;42.654;23.314;2023-03-03T07:04:54;94422.53;;;24.01;48.01
31337;BME280;22846;42.654;23.314;2023-03-03T07:07:23;94429.53;;;24.02;47.97
31337;BME280;22846;42.654;23.314;2023-03-03T07:09:51;94426.47;;;24.00;47.62
31337;BME280;22846;42.654;23.314;2023-03-03T07:12:19;94428.41;;;23.99;48.13
31337;BME280;22846;42.654;23.314;2023-03-03T07:14:49;94422.19;;;23.99;48.09
31337;BME280;22846;42.654;23.314;2023-03-03T07:17:20;94423.19;;;23.92;47.78
31337;BME280;22846;42.654;23.314;2023-03-03T07:19:47;94418.94;;;23.92;48.07
31337;BME280;22846;42.654;23.314;2023-03-03T07:24:39;94429.09;;;23.91;48.16
31337;BME280;22846;42.654;23.314;2023-03-03T07:27:09;94431.38;;;23.92;48.21
31337;BME280;22846;42.654;23.314;2023-03-03T07:29:36;94424.84;;;23.90;48.02
31337;BME280;22846;42.654;23.314;2023-03-03T07:34:46;94425.69;;;23.87;48.24
31337;BME280;22846;42.654;23.314;2023-03-03T07:37:16;94406.81;;;23.80;48.29
31337;BME280;22846;42.654;23.314;2023-03-03T07:39:44;94410.63;;;23.83;48.22
31337;BME280;22846;42.654;23.314;2023-03-03T07:42:26;94418.41;;;23.84;48.12
31337;BME280;22846;42.654;23.314;2023-03-03T07:44:59;94419.16;;;23.85;48.66
31337;BME280;22846;42.654;23.314;2023-03-03T07:47:30;94405.84;;;23.87;48.72
31337;BME280;22846;42.654;23.314;2023-03-03T07:50:01;94406.91;;;24.01;48.35
31337;BME280;22846;42.654;23.314;2023-03-03T07:52:41;94408.44;;;24.02;47.47
31337;BME280;22846;42.654;23.314;2023-03-03T07:55:25;94404.25;;;24.10;47.25
31337;BME280;22846;42.654;23.314;2023-03-03T07:57:52;94398.81;;;24.10;47.11
31337;BME280;22846;42.654;23.314;2023-03-03T08:03:01;94410.28;;;24.18;48.03
31337;BME280;22846;42.654;23.314;2023-03-03T08:05:34;94402.03;;;24.30;48.05
31337;BME280;22846;42.654;23.314;2023-03-03T08:10:52;94416.72;;;24.58;47.69
31337;BME280;22846;42.654;23.314;2023-03-03T08:13:20;94407.38;;;24.68;47.71
31337;BME280;22846;42.654;23.314;2023-03-03T08:16:00;94403.94;;;24.76;47.39
31337;BME280;22846;42.654;23.314;2023-03-03T08:18:34;94407.66;;;24.82;47.46
31337;BME280;22846;42.654;23.314;2023-03-03T08:21:21;94406.38;;;24.95;46.84
31337;BME280;22846;42.654;23.314;2023-03-03T08:23:47;94409.59;;;25.03;46.94
31337;BME280;22846;42.654;23.314;2023-03-03T08:26:18;94409.41;;;25.10;46.93
31337;BME280;22846;42.654;23.314;2023-03-03T08:28:44;94396.34;;;25.14;46.90
31337;BME280;22846;42.654;23.314;2023-03-03T08:31:09;94405.19;;;25.18;46.73
31337;BME280;22846;42.654;23.314;2023-03-03T08:33:35;94390.78;;;25.26;46.26
31337;BME280;22846;42.654;23.314;2023-03-03T08:36:01;94386.09;;;25.27;46.31
31337;BME280;22846;42.654;23.314;2023-03-03T08:38:26;94392.41;;;25.45;46.36
31337;BME280;22846;42.654;23.314;2023-03-03T08:40:52;94384.06;;;25.49;45.97
31337;BME280;22846;42.654;23.314;2023-03-03T08:43:18;94398.28;;;25.65;45.72
31337;BME280;22846;42.654;23.314;2023-03-03T08:45:47;94395.56;;;25.74;45.39
31337;BME280;22846;42.654;23.314;2023-03-03T08:48:14;94391.72;;;25.71;45.18
31337;BME280;22846;42.654;23.314;2023-03-03T08:50:40;94404.81;;;25.67;45.18
31337;BME280;22846;42.654;23.314;2023-03-03T08:53:07;94399.16;;;25.62;45.47
31337;BME280;22846;42.654;23.314;2023-03-03T08:55:32;94403.25;;;25.58;45.59
31337;BME280;22846;42.654;23.314;2023-03-03T08:57:58;94397.91;;;25.54;45.96
31337;BME280;22846;42.654;23.314;2023-03-03T09:00:24;94396.22;;;25.48;46.16
31337;BME280;22846;42.654;23.314;2023-03-03T09:02:51;94401.06;;;25.44;46.04
31337;BME280;22846;42.654;23.314;2023-03-03T09:05:18;94379.22;;;25.22;46.36
31337;BME280;22846;42.654;23.314;2023-03-03T09:07:44;94405.41;;;25.32;46.05
31337;BME280;22846;42.654;23.314;2023-03-03T09:10:12;94398.53;;;25.28;46.30
31337;BME280;22846;42.654;23.314;2023-03-03T09:12:40;94393.00;;;25.19;46.16
31337;BME280;22846;42.654;23.314;2023-03-03T09:17:59;94394.69;;;25.16;46.41
31337;BME280;22846;42.654;23.314;2023-03-03T09:20:33;94397.53;;;25.13;46.03
31337;BME280;22846;42.654;23.314;2023-03-03T09:29:16;94399.31;;;25.07;46.70
31337;BME280;22846;42.654;23.314;2023-03-03T09:31:49;94393.00;;;25.10;47.33
31337;BME280;22846;42.654;23.314;2023-03-03T09:37:00;94396.78;;;25.12;47.43
31337;BME280;22846;42.654;23.314;2023-03-03T09:39:29;94396.34;;;25.14;47.24
31337;BME280;22846;42.654;23.314;2023-03-03T09:56:27;94388.56;;;25.34;47.39
31337;BME280;22846;42.654;23.314;2023-03-03T10:01:42;94396.81;;;25.43;46.99
31337;BME280;22846;42.654;23.314;2023-03-03T10:04:39;94392.22;;;25.40;46.99
31337;BME280;22846;42.654;23.314;2023-03-03T10:07:27;94382.00;;;25.31;46.58
31337;BME280;22846;42.654;23.314;2023-03-03T10:12:32;94393.69;;;25.32;46.42
31337;BME280;22846;42.654;23.314;2023-03-03T10:17:52;94389.13;;;25.29;46.59
31337;BME280;22846;42.654;23.314;2023-03-03T10:20:49;94382.44;;;25.30;46.79
31337;BME280;22846;42.654;23.314;2023-03-03T10:34:43;94376.66;;;25.28;47.09
31337;BME280;22846;42.654;23.314;2023-03-03T10:40:12;94370.88;;;25.26;46.93
31337;BME280;22846;42.654;23.314;2023-03-03T11:01:49;94329.50;;;25.15;46.43
31337;BME280;22846;42.654;23.314;2023-03-03T11:10:00;94334.22;;;25.14;46.25
31337;BME280;22846;42.654;23.314;2023-03-03T11:17:53;94338.50;;;25.24;47.09
31337;BME280;22846;42.654;23.314;2023-03-03T11:31:37;94334.13;;;25.27;46.55
31337;BME280;22846;42.654;23.314;2023-03-03T11:34:19;94335.34;;;25.26;46.20
31337;BME280;22846;42.654;23.314;2023-03-03T11:36:56;94340.03;;;25.25;45.92
31337;BME280;22846;42.654;23.314;2023-03-03T11:39:25;94335.34;;;25.26;45.78
31337;BME280;22846;42.654;23.314;2023-03-03T11:44:42;94329.53;;;25.24;46.40
31337;BME280;22846;42.654;23.314;2023-03-03T11:49:55;94321.91;;;25.19;45.98
31337;BME280;22846;42.654;23.314;2023-03-03T11:55:29;94325.28;;;25.23;45.82
31337;BME280;22846;42.654;23.314;2023-03-03T12:09:38;94318.88;;;25.17;45.88
31337;BME280;22846;42.654;23.314;2023-03-03T12:20:24;94319.31;;;25.15;46.31
31337;BME280;22846;42.654;23.314;2023-03-03T12:25:46;94317.22;;;25.19;46.23
31337;BME280;22846;42.654;23.314;2023-03-03T12:28:20;94310.41;;;25.24;46.16
31337;BME280;22846;42.654;23.314;2023-03-03T12:31:01;94318.91;;;25.26;46.34
31337;BME280;22846;42.654;23.314;2023-03-03T12:36:42;94326.84;;;25.33;46.27
31337;BME280;22846;42.654;23.314;2023-03-03T12:55:20;94322.66;;;25.50;45.74
31337;BME280;22846;42.654;23.314;2023-03-03T13:00:48;94321.44;;;25.51;46.02
31337;BME280;22846;42.654;23.314;2023-03-03T13:03:32;94315.19;;;25.50;46.08
31337;BME280;22846;42.654;23.314;2023-03-03T13:06:10;94317.03;;;25.53;45.91
31337;BME280;22846;42.654;23.314;2023-03-03T13:19:50;94302.47;;;25.56;46.21
31337;BME280;22846;42.654;23.314;2023-03-03T13:22:30;94309.00;;;25.59;46.07
31337;BME280;22846;42.654;23.314;2023-03-03T13:25:03;94307.47;;;25.58;46.45
31337;BME280;22846;42.654;23.314;2023-03-03T13:27:39;94309.00;;;25.59;46.01
31337;BME280;22846;42.654;23.314;2023-03-03T13:32:43;94305.81;;;25.60;46.32
31337;BME280;22846;42.654;23.314;2023-03-03T13:37:52;94317.53;;;25.61;47.32
31337;BME280;22846;42.654;23.314;2023-03-03T13:40:25;94309.75;;;25.59;47.74
31337;BME280;22846;42.654;23.314;2023-03-03T13:45:57;94309.47;;;25.57;48.20
31337;BME280;22846;42.654;23.314;2023-03-03T14:07:13;94304.84;;;25.45;50.76
31337;BME280;22846;42.654;23.314;2023-03-03T14:15:24;94306.19;;;25.41;50.93
31337;BME280;22846;42.654;23.314;2023-03-03T14:20:34;94298.00;;;25.41;51.31
31337;BME280;22846;42.654;23.314;2023-03-03T14:23:26;94297.09;;;25.44;50.67
31337;BME280;22846;42.654;23.314;2023-03-03T14:26:07;94298.00;;;25.41;50.36
31337;BME280;22846;42.654;23.314;2023-03-03T14:28:42;94298.88;;;25.38;50.02
31337;BME280;22846;42.654;23.314;2023-03-03T14:31:27;94292.53;;;25.41;49.78
31337;BME280;22846;42.654;23.314;2023-03-03T14:34:02;94297.09;;;25.44;49.93
31337;BME280;22846;42.654;23.314;2023-03-03T14:36:40;94300.13;;;25.46;51.33
31337;BME280;22846;42.654;23.314;2023-03-03T14:41:50;94293.59;;;25.43;51.39
31337;BME280;22846;42.654;23.314;2023-03-03T14:44:29;94294.06;;;25.42;51.04
31337;BME280;22846;42.654;23.314;2023-03-03T14:49:32;94297.84;;;25.44;52.48
31337;BME280;22846;42.654;23.314;2023-03-03T14:52:20;94299.53;;;25.42;51.11
31337;BME280;22846;42.654;23.314;2023-03-03T14:54:52;94279.28;;;25.30;50.72
31337;BME280;22846;42.654;23.314;2023-03-03T14:57:20;94289.31;;;25.42;51.01
31337;BME280;22846;42.654;23.314;2023-03-03T14:59:56;94289.47;;;25.39;48.53
31337;BME280;22846;42.654;23.314;2023-03-03T15:05:16;94284.78;;;25.39;49.97
31337;BME280;22846;42.654;23.314;2023-03-03T15:07:43;94290.84;;;25.43;50.09
31337;BME280;22846;42.654;23.314;2023-03-03T15:10:09;94283.09;;;25.42;48.19
31337;BME280;22846;42.654;23.314;2023-03-03T15:12:40;94290.84;;;25.43;49.60
31337;BME280;22846;42.654;23.314;2023-03-03T15:17:34;94293.72;;;25.40;51.29
31337;BME280;22846;42.654;23.314;2023-03-03T15:22:48;94289.94;;;25.37;51.41
31337;BME280;22846;42.654;23.314;2023-03-03T15:30:37;94284.13;;;25.26;51.37
31337;BME280;22846;42.654;23.314;2023-03-03T15:35:50;94286.09;;;25.26;51.96
31337;BME280;22846;42.654;23.314;2023-03-03T15:43:39;94287.13;;;25.19;51.68
31337;BME280;22846;42.654;23.314;2023-03-03T15:56:59;94303.09;;;25.21;52.07
31337;BME280;22846;42.654;23.314;2023-03-03T16:02:32;94303.09;;;25.21;52.02
31337;BME280;22846;42.654;23.314;2023-03-03T16:15:40;94322.97;;;25.12;51.39
31337;BME280;22846;42.654;23.314;2023-03-03T16:21:20;94333.31;;;25.17;51.71
31337;BME280;22846;42.654;23.314;2023-03-03T16:24:46;94313.34;;;25.08;51.44
31337;BME280;22846;42.654;23.314;2023-03-03T16:27:42;94325.88;;;25.18;52.35
31337;BME280;22846;42.654;23.314;2023-03-03T16:32:52;94325.56;;;25.16;52.96
31337;BME280;22846;42.654;23.314;2023-03-03T16:35:28;94318.09;;;25.16;52.68
31337;BME280;22846;42.654;23.314;2023-03-03T16:38:02;94331.03;;;25.16;51.83
31337;BME280;22846;42.654;23.314;2023-03-03T16:40:37;94338.03;;;25.17;52.08
31337;BME280;22846;42.654;23.314;2023-03-03T16:49:07;94352.91;;;25.16;51.86
31337;BME280;22846;42.654;23.314;2023-03-03T16:51:44;94341.13;;;25.06;51.00
31337;BME280;22846;42.654;23.314;2023-03-03T16:56:43;94363.72;;;25.19;52.15
31337;BME280;22846;42.654;23.314;2023-03-03T16:59:24;94363.72;;;25.19;52.55
31337;BME280;22846;42.654;23.314;2023-03-03T17:10:41;94368.53;;;25.15;53.03
31337;BME280;22846;42.654;23.314;2023-03-03T17:16:08;94362.00;;;25.13;51.54
31337;BME280;22846;42.654;23.314;2023-03-03T17:21:55;94377.19;;;25.14;52.25
31337;BME280;22846;42.654;23.314;2023-03-03T17:27:06;94376.44;;;25.13;52.29
31337;BME280;22846;42.654;23.314;2023-03-03T17:29:58;94380.06;;;25.10;51.58
31337;BME280;22846;42.654;23.314;2023-03-03T17:32:36;94378.50;;;25.09;52.39
31337;BME280;22846;42.654;23.314;2023-03-03T17:41:00;94389.34;;;25.13;52.06
31337;BME280;22846;42.654;23.314;2023-03-03T17:46:13;94394.50;;;25.11;51.84
31337;BME280;22846;42.654;23.314;2023-03-03T18:00:02;94418.34;;;25.10;51.68
31337;BME280;22846;42.654;23.314;2023-03-03T18:24:38;;;;25.11;
31337;BME280;22846;42.654;23.314;2023-03-03T18:37:54;94435.19;;;25.09;51.75
31337;BME280;22846;42.654;23.314;2023-03-03T18:40:31;94446.88;;;25.09;51.32
31337;BME280;22846;42.654;23.314;2023-03-03T18:42:58;94437.72;;;25.03;51.71
31337;BME280;22846;42.654;23.314;2023-03-03T18:53:29;94453.44;;;25.12;51.22
31337;BME280;22846;42.654;23.314;2023-03-03T18:55:57;94455.44;;;25.11;51.46
31337;BME280;22846;42.654;23.314;2023-03-03T18:58:33;94455.44;;;25.11;52.53